METAR Data
IDs: Format: Raw Decoded Include TAF

Data at: 0236 UTC 18 Jun 2019

METAR for:K42J (Keystone Airpark, FL, US)
Text:K42J 180235Z AUTO 00000KT 10SM SCT028 SCT050 24/23 A3005 RMK A01 TSNO
Temperature: 24.0°C ( 75°F)
Dewpoint: 23.0°C ( 73°F) [RH = 94%]
Pressure (altimeter):30.05 inches Hg (1017.7 mb)
Winds:calm
Visibility:10 or more sm (16+ km)
Ceiling:at least 12,000 feet AGL
Clouds: scattered clouds at 2800 feet AGL, scattered clouds at 5000 feet AGL
QC Flag:automated observation with no human augmentation

TAF for:K42J (Keystone Airpark, FL, US)
Text:No data found